createdAt,value
2022-12-23T00:00:40.518Z,94796.09
2022-12-23T00:03:07.521Z,94775.81
2022-12-23T00:05:41.040Z,94786.69
2022-12-23T00:08:08.300Z,94791.94
2022-12-23T00:10:38.367Z,94784.44
2022-12-23T00:13:23.609Z,94793.06
2022-12-23T00:15:50.142Z,94798.72
2022-12-23T00:18:16.887Z,94789.72
2022-12-23T00:20:43.528Z,94796.41
2022-12-23T00:23:10.140Z,94783.69
2022-12-23T00:25:41.768Z,94781.47
2022-12-23T00:28:13.599Z,94782.19
2022-12-23T00:30:47.390Z,94794.91
2022-12-23T00:33:22.673Z,94789.69
2022-12-23T00:35:49.927Z,94795.69
2022-12-23T00:38:17.683Z,94790.06
2022-12-23T00:41:03.267Z,94806.97
2022-12-23T00:43:29.937Z,94782.94
2022-12-23T00:45:56.643Z,94785.16
2022-12-23T00:48:43.625Z,94794.97
2022-12-23T00:51:10.167Z,94782.78
2022-12-23T00:53:36.725Z,94787.00
2022-12-23T00:56:03.375Z,94791.13
2022-12-23T00:58:31.899Z,94782.75
2022-12-23T01:01:18.944Z,94782.13
2022-12-23T01:04:03.859Z,94779.13
2022-12-23T01:06:30.490Z,94767.91
2022-12-23T01:08:57.008Z,94791.91
2022-12-23T01:11:23.591Z,94770.03
2022-12-23T01:13:50.537Z,94773.09
2022-12-23T01:16:18.029Z,94787.41
2022-12-23T01:18:45.670Z,94784.31
2022-12-23T01:21:12.473Z,94777.56
2022-12-23T01:23:39.394Z,94782.78
2022-12-23T01:26:07.807Z,94788.28
2022-12-23T01:28:36.022Z,94794.03
2022-12-23T01:31:05.048Z,94797.78
2022-12-23T01:33:33.201Z,94810.63
2022-12-23T01:36:05.148Z,94812.94
2022-12-23T01:38:31.737Z,94813.72
2022-12-23T01:40:58.505Z,94815.50
2022-12-23T01:43:45.825Z,94817.34
2022-12-23T01:46:12.417Z,94831.00
2022-12-23T01:48:40.286Z,94813.63
2022-12-23T01:51:27.567Z,94826.06
2022-12-23T01:53:59.641Z,94816.28
2022-12-23T01:56:31.076Z,94813.22
2022-12-23T01:59:02.385Z,94801.91
2022-12-23T02:01:49.101Z,94803.03
2022-12-23T02:04:23.134Z,94801.97
2022-12-23T02:07:09.844Z,94823.34
2022-12-23T02:09:39.240Z,94828.47
2022-12-23T02:12:28.087Z,94825.59
2022-12-23T02:15:33.250Z,94838.34
2022-12-23T02:18:09.925Z,94824.09
2022-12-23T02:20:55.332Z,94817.63
2022-12-23T02:23:40.365Z,94822.59
2022-12-23T02:26:18.993Z,94817.50
2022-12-23T02:29:04.676Z,94825.34
2022-12-23T02:31:38.151Z,94829.28
2022-12-23T02:34:18.992Z,94813.63
2022-12-23T02:36:57.328Z,94834.22
2022-12-23T02:39:47.131Z,94838.69
2022-12-23T02:42:20.528Z,94831.16
2022-12-23T02:44:53.219Z,94821.91
2022-12-23T02:47:24.393Z,94835.66
2022-12-23T02:49:56.356Z,94842.69
2022-12-23T02:52:29.749Z,94823.53
2022-12-23T02:55:05.644Z,94820.53
2022-12-23T02:57:36.607Z,94813.03
2022-12-23T03:00:04.553Z,94825.66
2022-12-23T03:02:33.719Z,94840.84
2022-12-23T03:05:01.153Z,94827.53
2022-12-23T03:07:42.690Z,94833.41
2022-12-23T03:10:16.373Z,94831.66
2022-12-23T03:13:01.488Z,94842.47
2022-12-23T03:15:47.280Z,94825.88
2022-12-23T03:18:29.463Z,94822.88
2022-12-23T03:21:16.087Z,94831.88
2022-12-23T03:23:55.289Z,94820.00
2022-12-23T03:26:31.181Z,94830.38
2022-12-23T03:29:06.200Z,94826.72
2022-12-23T03:31:34.851Z,94822.63
2022-12-23T03:34:10.415Z,94816.63
2022-12-23T03:36:54.459Z,94823.41
2022-12-23T03:39:24.026Z,94826.06
2022-12-23T03:42:00.588Z,94819.25
2022-12-23T03:44:32.163Z,94813.22
2022-12-23T03:47:10.770Z,94804.59
2022-12-23T03:49:45.162Z,94802.66
2022-12-23T03:52:22.711Z,94801.81
2022-12-23T03:54:56.319Z,94796.13
2022-12-23T03:57:28.750Z,94802.44
2022-12-23T03:59:55.880Z,94795.72
2022-12-23T04:02:32.735Z,94807.75
2022-12-23T04:05:18.831Z,94800.13
2022-12-23T04:07:52.130Z,94812.50
2022-12-23T04:10:21.372Z,94816.56
2022-12-23T04:12:48.818Z,94816.56
2022-12-23T04:15:20.436Z,94825.31
2022-12-23T04:17:47.848Z,94814.81
2022-12-23T04:20:14.561Z,94808.84
2022-12-23T04:22:43.621Z,94817.91
2022-12-23T04:25:15.591Z,94817.25
2022-12-23T04:27:42.683Z,94806.31
2022-12-23T04:30:11.444Z,94810.44
2022-12-23T04:32:38.270Z,94807.44
2022-12-23T04:35:05.345Z,94809.00
2022-12-23T04:37:32.087Z,94816.13
2022-12-23T04:39:58.620Z,94824.78
2022-12-23T04:42:25.243Z,94822.47
2022-12-23T04:44:52.015Z,94809.03
2022-12-23T04:47:18.678Z,94818.69
2022-12-23T04:49:45.288Z,94793.84
2022-12-23T04:52:11.980Z,94806.38
2022-12-23T04:54:45.506Z,94822.44
2022-12-23T04:57:13.139Z,94816.81
2022-12-23T04:59:39.691Z,94812.69
2022-12-23T05:02:06.745Z,94820.25
2022-12-23T05:04:33.693Z,94818.56
2022-12-23T05:07:00.296Z,94810.38
2022-12-23T05:09:26.823Z,94801.34
2022-12-23T05:11:53.579Z,94793.16
2022-12-23T05:14:20.385Z,94795.63
2022-12-23T05:16:47.018Z,94810.25
2022-12-23T05:19:13.909Z,94798.13
2022-12-23T05:21:40.690Z,94792.94
2022-12-23T05:24:07.447Z,94793.06
2022-12-23T05:26:34.463Z,94789.31
2022-12-23T05:29:01.036Z,94781.78
2022-12-23T05:31:27.670Z,94785.47
2022-12-23T05:33:54.357Z,94796.75
2022-12-23T05:36:20.952Z,94782.09
2022-12-23T05:38:48.456Z,94795.31
2022-12-23T05:41:17.110Z,94777.28
2022-12-23T05:43:43.675Z,94790.06
2022-12-23T05:46:10.500Z,94780.31
2022-12-23T05:48:37.354Z,94803.53
2022-12-23T05:51:04.118Z,94803.16
2022-12-23T05:53:30.744Z,94798.22
2022-12-23T05:55:57.541Z,94797.44
2022-12-23T05:58:24.319Z,94805.66
2022-12-23T06:00:51.026Z,94808.03
2022-12-23T06:03:17.889Z,94814.03
2022-12-23T06:05:44.535Z,94809.47
2022-12-23T06:08:11.291Z,94792.97
2022-12-23T06:10:37.927Z,94785.88
2022-12-23T06:13:04.511Z,94790.06
2022-12-23T06:15:31.226Z,94786.97
2022-12-23T06:17:58.440Z,94794.66
2022-12-23T06:20:25.132Z,94804.88
2022-12-23T06:22:51.752Z,94803.44
2022-12-23T06:25:18.472Z,94814.34
2022-12-23T06:27:45.257Z,94819.25
2022-12-23T06:30:12.357Z,94817.00
2022-12-23T06:32:39.847Z,94807.25
2022-12-23T06:35:10.125Z,94814.78
2022-12-23T06:37:36.736Z,94803.53
2022-12-23T06:40:03.936Z,94801.66
2022-12-23T06:42:30.624Z,94808.13
2022-12-23T06:44:57.174Z,94817.09
2022-12-23T06:47:23.705Z,94803.53
2022-12-23T06:49:50.271Z,94796.22
2022-12-23T06:52:17.001Z,94801.72
2022-12-23T06:54:43.775Z,94808.03
2022-12-23T06:57:10.352Z,94817.06
2022-12-23T06:59:36.937Z,94816.66
2022-12-23T07:02:04.053Z,94826.41
2022-12-23T07:04:30.833Z,94823.78
2022-12-23T07:06:57.868Z,94827.41
2022-12-23T07:09:24.703Z,94834.31
2022-12-23T07:11:51.270Z,94839.69
2022-12-23T07:14:17.834Z,94845.63
2022-12-23T07:16:45.484Z,94846.44
2022-12-23T07:19:12.342Z,94860.00
2022-12-23T07:21:38.881Z,94870.41
2022-12-23T07:24:06.390Z,94865.19
2022-12-23T07:26:33.015Z,94865.91
2022-12-23T07:28:59.551Z,94871.63
2022-12-23T07:31:26.396Z,94876.53
2022-12-23T07:33:52.965Z,94868.94
2022-12-23T07:36:19.601Z,94878.69
2022-12-23T07:38:50.243Z,94878.69
2022-12-23T07:41:17.185Z,94874.22
2022-12-23T07:43:43.891Z,94879.22
2022-12-23T07:46:10.877Z,94881.00
2022-12-23T07:48:37.701Z,94885.88
2022-12-23T07:51:04.841Z,94881.38
2022-12-23T07:53:31.640Z,94877.25
2022-12-23T07:55:58.835Z,94870.38
2022-12-23T07:58:25.801Z,94873.38
2022-12-23T08:00:59.508Z,94871.06
2022-12-23T08:03:26.154Z,94868.78
2022-12-23T08:06:07.053Z,94871.34
2022-12-23T08:08:34.164Z,94864.25
2022-12-23T08:11:03.338Z,94871.41
2022-12-23T08:13:32.074Z,94864.53
2022-12-23T08:16:00.794Z,94858.03
2022-12-23T08:18:29.701Z,94862.41
2022-12-23T08:20:58.423Z,94852.69
2022-12-23T08:23:26.687Z,94852.00
2022-12-23T08:26:09.397Z,94871.53
2022-12-23T08:28:37.508Z,94862.00
2022-12-23T08:31:09.232Z,94867.38
2022-12-23T08:33:38.215Z,94866.19
2022-12-23T08:36:06.838Z,94869.88
2022-12-23T08:38:34.477Z,94861.00
2022-12-23T08:41:01.261Z,94873.00
2022-12-23T08:43:35.281Z,94865.06
2022-12-23T08:46:03.052Z,94865.91
2022-12-23T08:48:29.738Z,94849.28
2022-12-23T08:50:56.348Z,94864.13
2022-12-23T08:53:23.141Z,94854.91
2022-12-23T08:55:49.773Z,94865.56
2022-12-23T08:58:16.407Z,94862.03
2022-12-23T09:00:43.105Z,94854.34
2022-12-23T09:03:09.998Z,94854.63
2022-12-23T09:05:41.502Z,94868.25
2022-12-23T09:08:09.433Z,94873.41
2022-12-23T09:10:43.666Z,94876.94
2022-12-23T09:13:16.238Z,94887.50
2022-12-23T09:15:47.028Z,94888.25
2022-12-23T09:18:13.708Z,94874.84
2022-12-23T09:20:40.405Z,94870.22
2022-12-23T09:23:06.973Z,94869.97
2022-12-23T09:25:35.634Z,94871.47
2022-12-23T09:28:02.595Z,94865.78
2022-12-23T09:30:29.304Z,94862.72
2022-12-23T09:32:56.077Z,94868.78
2022-12-23T09:35:22.621Z,94871.75
2022-12-23T09:37:49.222Z,94870.06
2022-12-23T09:40:21.599Z,94863.16
2022-12-23T09:42:56.336Z,94865.38
2022-12-23T09:45:50.037Z,94864.22
2022-12-23T09:48:22.311Z,94856.69
2022-12-23T09:50:49.174Z,94854.28
2022-12-23T09:53:19.900Z,94865.00
2022-12-23T09:55:55.027Z,94846.44
2022-12-23T09:58:35.696Z,94852.63
2022-12-23T10:01:18.477Z,94853.44
2022-12-23T10:04:37.911Z,94855.78
2022-12-23T10:07:04.495Z,94852.06
2022-12-23T10:09:35.540Z,94849.31
2022-12-23T10:12:19.716Z,94846.69
2022-12-23T10:14:52.217Z,94845.59
2022-12-23T10:17:41.811Z,94842.41
2022-12-23T10:20:18.466Z,94836.47
2022-12-23T10:22:46.463Z,94842.06
2022-12-23T10:25:20.015Z,94841.47
2022-12-23T10:27:46.718Z,94843.16
2022-12-23T10:30:51.341Z,94841.13
2022-12-23T10:33:21.649Z,94833.00
2022-12-23T10:36:11.469Z,94830.53
2022-12-23T10:38:38.129Z,94832.03
2022-12-23T10:41:13.415Z,94830.72
2022-12-23T10:44:01.453Z,94827.59
2022-12-23T10:46:31.106Z,94831.31
2022-12-23T10:49:16.175Z,94834.31
2022-12-23T10:51:59.482Z,94817.59
2022-12-23T10:54:32.950Z,94830.16
2022-12-23T10:57:00.086Z,94817.84
2022-12-23T10:59:29.541Z,94829.81
2022-12-23T11:02:11.640Z,94808.66
2022-12-23T11:04:42.069Z,94815.47
2022-12-23T11:07:42.670Z,94819.28
2022-12-23T11:10:04.640Z,94813.25
2022-12-23T11:12:44.555Z,94820.81
2022-12-23T11:15:28.573Z,94825.13
2022-12-23T11:18:19.510Z,94816.63
2022-12-23T11:21:02.580Z,94817.06
2022-12-23T11:23:33.083Z,94805.75
2022-12-23T11:26:08.719Z,94787.91
2022-12-23T11:28:38.391Z,94801.88
2022-12-23T11:31:09.781Z,94802.03
2022-12-23T11:33:45.709Z,94797.59
2022-12-23T11:36:12.222Z,94802.75
2022-12-23T11:38:50.732Z,94793.38
2022-12-23T11:41:22.449Z,94790.81
2022-12-23T11:43:58.457Z,94779.81
2022-12-23T11:46:29.862Z,94797.94
2022-12-23T11:49:13.965Z,94794.59
2022-12-23T11:51:41.040Z,94786.25
2022-12-23T11:54:16.448Z,94793.34
2022-12-23T11:56:43.574Z,94787.63
2022-12-23T11:59:45.795Z,94786.44
2022-12-23T12:02:20.182Z,94787.69
2022-12-23T12:04:57.759Z,94779.88
2022-12-23T12:07:26.041Z,94782.06
2022-12-23T12:09:56.588Z,94780.56
2022-12-23T12:12:23.764Z,94769.31
2022-12-23T12:14:56.392Z,94778.06
2022-12-23T12:17:47.246Z,94776.84
2022-12-23T12:20:25.634Z,94772.06
2022-12-23T12:23:02.347Z,94777.22
2022-12-23T12:25:39.670Z,94772.94
2022-12-23T12:28:13.760Z,94779.00
2022-12-23T12:30:48.738Z,94771.16
2022-12-23T12:33:18.305Z,94765.19
2022-12-23T12:35:53.967Z,94762.09
2022-12-23T12:38:32.714Z,94755.44
2022-12-23T12:41:07.976Z,94771.91
2022-12-23T12:43:39.970Z,94757.56
2022-12-23T12:46:14.060Z,94762.16
2022-12-23T12:48:46.708Z,94749.31
2022-12-23T12:51:24.708Z,94762.19
2022-12-23T12:54:04.664Z,94771.34
2022-12-23T12:56:47.008Z,94762.94
2022-12-23T12:59:24.933Z,94771.94
2022-12-23T13:02:30.499Z,94766.78
2022-12-23T13:05:28.657Z,94769.16
2022-12-23T13:08:19.307Z,94767.19
2022-12-23T13:11:09.630Z,94768.88
2022-12-23T13:14:02.592Z,94760.09
2022-12-23T13:16:57.309Z,94767.56
2022-12-23T13:19:51.373Z,94741.47
2022-12-23T13:22:27.491Z,94761.59
2022-12-23T13:25:19.735Z,94757.41
2022-12-23T13:27:49.132Z,94737.00
2022-12-23T13:30:21.566Z,94760.69
2022-12-23T13:33:11.131Z,94757.22
2022-12-23T13:35:55.465Z,94776.88
2022-12-23T13:38:54.852Z,94782.50
2022-12-23T13:41:34.557Z,94786.00
2022-12-23T13:44:06.670Z,94770.81
2022-12-23T13:47:02.439Z,94773.59
2022-12-23T13:49:38.360Z,94785.97
2022-12-23T13:52:17.343Z,94768.69
2022-12-23T13:54:56.016Z,94774.47
2022-12-23T13:57:40.555Z,94764.81
2022-12-23T14:00:17.073Z,94772.38
2022-12-23T14:03:05.591Z,94764.88
2022-12-23T14:05:38.929Z,94767.47
2022-12-23T14:08:07.571Z,94768.56
2022-12-23T14:10:35.382Z,94785.84
2022-12-23T14:13:06.368Z,94782.00
2022-12-23T14:15:52.920Z,94770.63
2022-12-23T14:18:45.579Z,94767.88
2022-12-23T14:21:32.369Z,94774.75
2022-12-23T14:24:10.813Z,94785.84
2022-12-23T14:27:16.206Z,94789.81
2022-12-23T14:29:57.435Z,94795.09
2022-12-23T14:32:36.054Z,94780.03
2022-12-23T14:35:15.414Z,94781.53
2022-12-23T14:37:42.842Z,94773.97
2022-12-23T14:40:37.406Z,94771.06
2022-12-23T14:43:22.842Z,94774.84
2022-12-23T14:45:57.849Z,94786.91
2022-12-23T14:48:33.624Z,94777.81
2022-12-23T14:51:37.406Z,94782.75
2022-12-23T14:54:03.858Z,94796.97
2022-12-23T14:56:39.502Z,94787.31
2022-12-23T14:59:27.075Z,94785.31
2022-12-23T15:01:58.011Z,94786.69
2022-12-23T15:04:30.520Z,94770.84
2022-12-23T15:06:57.066Z,94791.56
2022-12-23T15:09:44.770Z,94782.81
2022-12-23T15:12:18.060Z,94787.75
2022-12-23T15:14:50.957Z,94777.31
2022-12-23T15:17:33.391Z,94782.34
2022-12-23T15:20:24.606Z,94795.59
2022-12-23T15:22:52.734Z,94777.25
2022-12-23T15:25:28.547Z,94776.88
2022-12-23T15:28:01.865Z,94788.56
2022-12-23T15:30:48.150Z,94792.34
2022-12-23T15:34:00.935Z,94787.66
2022-12-23T15:36:10.681Z,94805.47
2022-12-23T15:38:39.128Z,94814.06
2022-12-23T15:41:14.951Z,94820.97
2022-12-23T15:43:42.594Z,94811.97
2022-12-23T15:46:16.225Z,94811.34
2022-12-23T15:48:43.342Z,94817.88
2022-12-23T15:51:12.620Z,94818.66
2022-12-23T15:53:42.580Z,94826.25
2022-12-23T15:56:18.522Z,94814.88
2022-12-23T15:58:45.798Z,94815.59
2022-12-23T16:01:18.307Z,94818.59
2022-12-23T16:03:53.021Z,94825.47
2022-12-23T16:06:22.344Z,94815.69
2022-12-23T16:08:58.034Z,94823.16
2022-12-23T16:11:38.155Z,94812.69
2022-12-23T16:14:30.616Z,94798.78
2022-12-23T16:17:09.370Z,94779.38
2022-12-23T16:19:44.097Z,94796.91
2022-12-23T16:22:18.069Z,94791.63
2022-12-23T16:24:52.036Z,94796.50
2022-12-23T16:27:25.941Z,94792.22
2022-12-23T16:29:52.773Z,94794.50
2022-12-23T16:32:19.775Z,94797.50
2022-12-23T16:34:50.688Z,94812.19
2022-12-23T16:37:17.360Z,94821.94
2022-12-23T16:39:43.962Z,94813.38
2022-12-23T16:42:10.538Z,94825.38
2022-12-23T16:44:37.270Z,94816.31
2022-12-23T16:47:13.384Z,94810.38
2022-12-23T16:49:40.003Z,94814.38
2022-12-23T16:52:09.379Z,94830.66
2022-12-23T16:54:35.976Z,94839.91
2022-12-23T16:57:02.687Z,94832.28
2022-12-23T16:59:29.418Z,94840.97
2022-12-23T17:02:02.943Z,94825.53
2022-12-23T17:04:30.363Z,94833.91
2022-12-23T17:06:56.936Z,94831.63
2022-12-23T17:09:23.494Z,94835.13
2022-12-23T17:11:53.891Z,94830.88
2022-12-23T17:14:22.965Z,94830.25
2022-12-23T17:16:50.019Z,94827.94
2022-12-23T17:19:23.417Z,94836.94
2022-12-23T17:21:59.709Z,94841.78
2022-12-23T17:24:27.157Z,94849.84
2022-12-23T17:26:55.279Z,94849.44
2022-12-23T17:29:22.142Z,94830.28
2022-12-23T17:31:49.843Z,94835.81
2022-12-23T17:34:18.452Z,94833.56
2022-12-23T17:36:49.954Z,94820.06
2022-12-23T17:39:17.775Z,94833.97
2022-12-23T17:41:44.509Z,94832.34
2022-12-23T17:44:13.859Z,94826.00
2022-12-23T17:46:40.953Z,94830.97
2022-12-23T17:49:08.703Z,94828.66
2022-12-23T17:51:35.626Z,94836.13
2022-12-23T17:54:02.434Z,94858.72
2022-12-23T17:56:33.179Z,94858.66
2022-12-23T17:58:59.773Z,94866.94
2022-12-23T18:01:32.193Z,94869.25
2022-12-23T18:04:00.174Z,94875.44
2022-12-23T18:06:28.580Z,94865.25
2022-12-23T18:08:57.492Z,94872.31
2022-12-23T18:11:53.355Z,94881.84
2022-12-23T18:14:28.213Z,94877.38
2022-12-23T18:16:54.971Z,94873.88
2022-12-23T18:19:21.664Z,94897.88
2022-12-23T18:21:48.718Z,94904.81
2022-12-23T18:24:15.831Z,94921.31
2022-12-23T18:26:43.061Z,94929.53
2022-12-23T18:29:09.651Z,94949.00
2022-12-23T18:31:48.401Z,94955.47
2022-12-23T18:34:18.417Z,94921.91
2022-12-23T18:36:45.687Z,94925.28
2022-12-23T18:39:12.325Z,94923.53
2022-12-23T18:41:38.866Z,94916.75
2022-12-23T18:44:05.405Z,94895.66
2022-12-23T18:46:32.041Z,94882.03
2022-12-23T18:48:58.719Z,94874.84
2022-12-23T18:51:25.284Z,94848.03
2022-12-23T18:53:51.872Z,94865.38
2022-12-23T18:56:21.381Z,94869.03
2022-12-23T18:58:48.238Z,94897.69
2022-12-23T19:01:16.907Z,94903.69
2022-12-23T19:03:43.780Z,94898.59
2022-12-23T19:06:13.524Z,94891.06
2022-12-23T19:08:41.332Z,94877.53
2022-12-23T19:11:13.885Z,94883.63
2022-12-23T19:13:40.501Z,94909.56
2022-12-23T19:16:07.642Z,94911.34
2022-12-23T19:18:34.571Z,94929.81
2022-12-23T19:21:04.493Z,94906.78
2022-12-23T19:23:31.376Z,94891.81
2022-12-23T19:25:57.960Z,94917.47
2022-12-23T19:28:24.657Z,94900.09
2022-12-23T19:30:51.583Z,94893.25
2022-12-23T19:33:18.250Z,94886.88
2022-12-23T19:35:44.917Z,94892.53
2022-12-23T19:38:12.426Z,94892.56
2022-12-23T19:40:39.724Z,94895.50
2022-12-23T19:43:06.404Z,94889.41
2022-12-23T19:45:32.985Z,94902.28
2022-12-23T19:47:59.565Z,94907.56
2022-12-23T19:50:27.288Z,94927.69
2022-12-23T19:52:56.372Z,94935.69
2022-12-23T19:55:23.403Z,94939.69
2022-12-23T19:57:50.047Z,94937.41
2022-12-23T20:00:16.794Z,94942.78
2022-12-23T20:02:43.511Z,94948.47
2022-12-23T20:05:10.272Z,94943.63
2022-12-23T20:07:37.296Z,94937.19
2022-12-23T20:10:05.504Z,94953.78
2022-12-23T20:12:32.258Z,94956.38
2022-12-23T20:14:58.847Z,94952.41
2022-12-23T20:17:25.614Z,94918.81
2022-12-23T20:19:52.243Z,94912.94
2022-12-23T20:22:18.901Z,94924.25
2022-12-23T20:24:45.727Z,94925.03
2022-12-23T20:27:14.904Z,94938.22
2022-12-23T20:29:42.644Z,94936.72
2022-12-23T20:32:09.452Z,94944.72
2022-12-23T20:34:39.470Z,94946.94
2022-12-23T20:37:07.056Z,94950.22
2022-12-23T20:39:33.909Z,94954.00
2022-12-23T20:42:00.468Z,94937.75
2022-12-23T20:44:36.007Z,94936.25
2022-12-23T20:47:07.102Z,94940.44
2022-12-23T20:49:33.782Z,94919.78
2022-12-23T20:52:01.208Z,94931.03
2022-12-23T20:54:32.795Z,94928.44
2022-12-23T20:57:01.089Z,94920.63
2022-12-23T20:59:28.006Z,94919.13
2022-12-23T21:01:54.978Z,94919.84
2022-12-23T21:04:22.648Z,94921.38
2022-12-23T21:06:49.700Z,94921.38
2022-12-23T21:09:16.422Z,94929.63
2022-12-23T21:11:46.241Z,94944.69
2022-12-23T21:14:14.653Z,94949.28
2022-12-23T21:16:42.624Z,94943.22
2022-12-23T21:19:15.748Z,94963.56
2022-12-23T21:21:42.735Z,94963.56
2022-12-23T21:24:10.754Z,94966.19
2022-12-23T21:26:37.501Z,94971.88
2022-12-23T21:29:06.455Z,94954.22
2022-12-23T21:31:35.142Z,94955.38
2022-12-23T21:34:02.282Z,94964.41
2022-12-23T21:36:31.676Z,94962.50
2022-12-23T21:38:59.247Z,94977.22
2022-12-23T21:41:29.157Z,94974.56
2022-12-23T21:44:00.161Z,94983.94
2022-12-23T21:46:28.312Z,94988.47
2022-12-23T21:48:58.957Z,94995.16
2022-12-23T21:51:31.807Z,94995.25
2022-12-23T21:54:03.699Z,95008.38
2022-12-23T21:56:31.566Z,95004.59
2022-12-23T21:59:13.118Z,94994.47
2022-12-23T22:01:40.915Z,95013.31
2022-12-23T22:04:07.984Z,95008.75
2022-12-23T22:06:39.156Z,95013.28
2022-12-23T22:09:07.323Z,95001.63
2022-12-23T22:11:35.692Z,95002.81
2022-12-23T22:14:04.263Z,95009.59
2022-12-23T22:16:31.795Z,95011.06
2022-12-23T22:19:00.255Z,95008.81
2022-12-23T22:21:29.529Z,95014.88
2022-12-23T22:23:57.102Z,95017.16
2022-12-23T22:26:26.997Z,95008.81
2022-12-23T22:28:58.648Z,95014.84
2022-12-23T22:31:45.310Z,95031.34
2022-12-23T22:34:18.946Z,95009.56
2022-12-23T22:36:46.141Z,95004.22
2022-12-23T22:39:21.127Z,95000.13
2022-12-23T22:41:49.968Z,95004.25
2022-12-23T22:44:16.713Z,94996.25
2022-12-23T22:46:43.601Z,94998.19
2022-12-23T22:49:15.270Z,94986.13
2022-12-23T22:51:43.140Z,94981.28
2022-12-23T22:54:10.295Z,94988.78
2022-12-23T22:56:36.966Z,94997.44
2022-12-23T22:59:04.847Z,94986.88
2022-12-23T23:01:34.396Z,94985.00
2022-12-23T23:04:03.054Z,94998.19
2022-12-23T23:06:37.863Z,94997.44
2022-12-23T23:09:11.451Z,95001.19
2022-12-23T23:11:38.648Z,95014.03
2022-12-23T23:14:05.785Z,95015.59
2022-12-23T23:16:33.307Z,95008.09
2022-12-23T23:19:00.503Z,95015.19
2022-12-23T23:21:27.220Z,95021.19
2022-12-23T23:23:53.947Z,95028.38
2022-12-23T23:26:21.136Z,95026.09
2022-12-23T23:28:48.050Z,95029.88
2022-12-23T23:31:41.452Z,95034.34
2022-12-23T23:34:01.375Z,95026.13
2022-12-23T23:36:28.082Z,95029.78
2022-12-23T23:38:54.836Z,95031.34
2022-12-23T23:41:23.640Z,95022.25
2022-12-23T23:43:51.335Z,95026.88
2022-12-23T23:46:18.346Z,95031.47
2022-12-23T23:48:45.248Z,95039.31
2022-12-23T23:51:12.821Z,95037.47
2022-12-23T23:53:40.225Z,95057.06
2022-12-23T23:56:08.537Z,95058.19
2022-12-23T23:58:36.484Z,95054.03
